sensor_id;sensor_type;location;lat;lon;timestamp;P1;durP1;ratioP1;P2;durP2;ratioP2
67768;SDS011;54569;52.018;5.584;2022-12-07T00:02:04;5.25;;;3.63;;
67768;SDS011;54569;52.018;5.584;2022-12-07T00:04:30;4.72;;;3.70;;
67768;SDS011;54569;52.018;5.584;2022-12-07T00:06:56;4.57;;;3.50;;
67768;SDS011;54569;52.018;5.584;2022-12-07T00:09:21;7.72;;;4.55;;
67768;SDS011;54569;52.018;5.584;2022-12-07T00:11:50;8.00;;;4.05;;
67768;SDS011;54569;52.018;5.584;2022-12-07T00:14:16;7.28;;;4.20;;
67768;SDS011;54569;52.018;5.584;2022-12-07T00:16:43;9.82;;;3.88;;
67768;SDS011;54569;52.018;5.584;2022-12-07T00:19:10;5.60;;;4.10;;
67768;SDS011;54569;52.018;5.584;2022-12-07T00:21:37;4.78;;;3.78;;
67768;SDS011;54569;52.018;5.584;2022-12-07T00:24:03;7.28;;;4.03;;
67768;SDS011;54569;52.018;5.584;2022-12-07T00:26:34;4.78;;;3.50;;
67768;SDS011;54569;52.018;5.584;2022-12-07T00:29:07;5.20;;;3.80;;
67768;SDS011;54569;52.018;5.584;2022-12-07T00:31:36;9.07;;;4.18;;
67768;SDS011;54569;52.018;5.584;2022-12-07T00:34:04;4.55;;;3.58;;
67768;SDS011;54569;52.018;5.584;2022-12-07T00:36:31;4.68;;;3.65;;
67768;SDS011;54569;52.018;5.584;2022-12-07T00:38:57;4.07;;;3.42;;
67768;SDS011;54569;52.018;5.584;2022-12-07T00:41:24;5.22;;;3.35;;
67768;SDS011;54569;52.018;5.584;2022-12-07T00:43:52;8.27;;;3.65;;
67768;SDS011;54569;52.018;5.584;2022-12-07T00:46:18;8.25;;;3.42;;
67768;SDS011;54569;52.018;5.584;2022-12-07T00:48:45;6.50;;;3.03;;
67768;SDS011;54569;52.018;5.584;2022-12-07T00:51:11;8.02;;;3.95;;
67768;SDS011;54569;52.018;5.584;2022-12-07T00:53:38;3.88;;;3.13;;
67768;SDS011;54569;52.018;5.584;2022-12-07T00:56:09;5.28;;;3.22;;
67768;SDS011;54569;52.018;5.584;2022-12-07T00:58:37;7.03;;;3.30;;
67768;SDS011;54569;52.018;5.584;2022-12-07T01:01:04;4.43;;;2.72;;
67768;SDS011;54569;52.018;5.584;2022-12-07T01:03:31;6.05;;;3.15;;
67768;SDS011;54569;52.018;5.584;2022-12-07T01:05:57;4.10;;;2.72;;
67768;SDS011;54569;52.018;5.584;2022-12-07T01:08:23;7.05;;;3.33;;
67768;SDS011;54569;52.018;5.584;2022-12-07T01:10:57;6.28;;;3.30;;
67768;SDS011;54569;52.018;5.584;2022-12-07T01:13:30;4.95;;;3.10;;
67768;SDS011;54569;52.018;5.584;2022-12-07T01:15:58;6.72;;;3.30;;
67768;SDS011;54569;52.018;5.584;2022-12-07T01:18:25;4.88;;;2.83;;
67768;SDS011;54569;52.018;5.584;2022-12-07T01:21:02;6.60;;;2.80;;
67768;SDS011;54569;52.018;5.584;2022-12-07T01:23:28;8.20;;;3.10;;
67768;SDS011;54569;52.018;5.584;2022-12-07T01:25:55;5.38;;;3.40;;
67768;SDS011;54569;52.018;5.584;2022-12-07T01:28:25;4.80;;;2.90;;
67768;SDS011;54569;52.018;5.584;2022-12-07T01:30:54;6.03;;;2.95;;
67768;SDS011;54569;52.018;5.584;2022-12-07T01:33:24;4.68;;;2.67;;
67768;SDS011;54569;52.018;5.584;2022-12-07T01:35:52;6.82;;;2.58;;
67768;SDS011;54569;52.018;5.584;2022-12-07T01:38:17;4.03;;;2.63;;
67768;SDS011;54569;52.018;5.584;2022-12-07T01:40:43;6.20;;;2.70;;
67768;SDS011;54569;52.018;5.584;2022-12-07T01:43:14;7.10;;;2.60;;
67768;SDS011;54569;52.018;5.584;2022-12-07T01:45:43;6.22;;;2.88;;
67768;SDS011;54569;52.018;5.584;2022-12-07T01:48:09;5.10;;;2.70;;
67768;SDS011;54569;52.018;5.584;2022-12-07T01:50:37;6.57;;;2.78;;
67768;SDS011;54569;52.018;5.584;2022-12-07T01:53:04;7.57;;;3.60;;
67768;SDS011;54569;52.018;5.584;2022-12-07T01:55:34;7.07;;;2.55;;
67768;SDS011;54569;52.018;5.584;2022-12-07T01:58:02;7.95;;;2.40;;
67768;SDS011;54569;52.018;5.584;2022-12-07T02:00:29;6.45;;;2.47;;
67768;SDS011;54569;52.018;5.584;2022-12-07T02:05:25;4.72;;;2.15;;
67768;SDS011;54569;52.018;5.584;2022-12-07T02:07:51;5.45;;;2.25;;
67768;SDS011;54569;52.018;5.584;2022-12-07T02:10:21;9.95;;;2.67;;
67768;SDS011;54569;52.018;5.584;2022-12-07T02:12:51;6.03;;;2.33;;
67768;SDS011;54569;52.018;5.584;2022-12-07T02:15:25;7.95;;;2.55;;
67768;SDS011;54569;52.018;5.584;2022-12-07T02:18:16;3.53;;;2.33;;
67768;SDS011;54569;52.018;5.584;2022-12-07T02:31:50;3.92;;;2.10;;
67768;SDS011;54569;52.018;5.584;2022-12-07T02:37:01;6.78;;;2.08;;
67768;SDS011;54569;52.018;5.584;2022-12-07T02:42:30;4.80;;;2.40;;
67768;SDS011;54569;52.018;5.584;2022-12-07T02:44:59;4.90;;;1.83;;
67768;SDS011;54569;52.018;5.584;2022-12-07T02:47:26;6.45;;;1.90;;
67768;SDS011;54569;52.018;5.584;2022-12-07T02:49:53;5.38;;;2.00;;
67768;SDS011;54569;52.018;5.584;2022-12-07T02:52:20;3.50;;;1.65;;
67768;SDS011;54569;52.018;5.584;2022-12-07T02:54:46;6.68;;;2.08;;
67768;SDS011;54569;52.018;5.584;2022-12-07T03:00:08;4.22;;;1.48;;
67768;SDS011;54569;52.018;5.584;2022-12-07T03:11:08;6.55;;;2.10;;
67768;SDS011;54569;52.018;5.584;2022-12-07T03:14:23;6.35;;;2.10;;
67768;SDS011;54569;52.018;5.584;2022-12-07T03:16:47;6.50;;;1.98;;
67768;SDS011;54569;52.018;5.584;2022-12-07T03:19:22;4.68;;;1.52;;
67768;SDS011;54569;52.018;5.584;2022-12-07T03:21:53;2.47;;;1.50;;
67768;SDS011;54569;52.018;5.584;2022-12-07T03:24:24;4.72;;;1.55;;
67768;SDS011;54569;52.018;5.584;2022-12-07T03:26:55;5.07;;;1.95;;
67768;SDS011;54569;52.018;5.584;2022-12-07T03:29:44;5.15;;;1.95;;
67768;SDS011;54569;52.018;5.584;2022-12-07T03:37:46;4.50;;;1.80;;
67768;SDS011;54569;52.018;5.584;2022-12-07T03:40:26;7.50;;;1.60;;
67768;SDS011;54569;52.018;5.584;2022-12-07T03:43:10;5.57;;;1.38;;
67768;SDS011;54569;52.018;5.584;2022-12-07T03:45:40;6.53;;;1.90;;
67768;SDS011;54569;52.018;5.584;2022-12-07T03:48:12;3.33;;;1.27;;
67768;SDS011;54569;52.018;5.584;2022-12-07T03:53:47;6.50;;;1.70;;
67768;SDS011;54569;52.018;5.584;2022-12-07T03:56:18;6.32;;;1.48;;
67768;SDS011;54569;52.018;5.584;2022-12-07T03:58:45;5.95;;;1.60;;
67768;SDS011;54569;52.018;5.584;2022-12-07T04:01:11;5.22;;;1.77;;
67768;SDS011;54569;52.018;5.584;2022-12-07T04:03:37;5.28;;;1.73;;
67768;SDS011;54569;52.018;5.584;2022-12-07T04:06:03;6.45;;;1.60;;
67768;SDS011;54569;52.018;5.584;2022-12-07T04:08:29;6.10;;;1.75;;
67768;SDS011;54569;52.018;5.584;2022-12-07T04:10:54;3.38;;;1.40;;
67768;SDS011;54569;52.018;5.584;2022-12-07T04:13:20;6.90;;;1.60;;
67768;SDS011;54569;52.018;5.584;2022-12-07T04:15:46;3.00;;;1.58;;
67768;SDS011;54569;52.018;5.584;2022-12-07T04:18:11;3.72;;;1.45;;
67768;SDS011;54569;52.018;5.584;2022-12-07T04:20:37;6.18;;;1.95;;
67768;SDS011;54569;52.018;5.584;2022-12-07T04:23:02;5.50;;;1.50;;
67768;SDS011;54569;52.018;5.584;2022-12-07T04:25:28;4.22;;;1.15;;
67768;SDS011;54569;52.018;5.584;2022-12-07T04:27:54;3.28;;;1.40;;
67768;SDS011;54569;52.018;5.584;2022-12-07T04:30:19;2.80;;;1.30;;
67768;SDS011;54569;52.018;5.584;2022-12-07T04:32:45;5.13;;;1.95;;
67768;SDS011;54569;52.018;5.584;2022-12-07T04:35:11;3.85;;;1.67;;
67768;SDS011;54569;52.018;5.584;2022-12-07T04:37:36;4.47;;;1.42;;
67768;SDS011;54569;52.018;5.584;2022-12-07T04:40:04;4.63;;;1.30;;
67768;SDS011;54569;52.018;5.584;2022-12-07T04:42:32;4.90;;;1.23;;
67768;SDS011;54569;52.018;5.584;2022-12-07T04:44:58;4.35;;;1.42;;
67768;SDS011;54569;52.018;5.584;2022-12-07T04:47:23;9.32;;;1.35;;
67768;SDS011;54569;52.018;5.584;2022-12-07T04:49:49;2.92;;;1.08;;
67768;SDS011;54569;52.018;5.584;2022-12-07T04:52:14;5.00;;;1.25;;
67768;SDS011;54569;52.018;5.584;2022-12-07T04:54:40;4.40;;;1.15;;
67768;SDS011;54569;52.018;5.584;2022-12-07T04:57:06;3.30;;;1.35;;
67768;SDS011;54569;52.018;5.584;2022-12-07T04:59:31;4.70;;;1.10;;
67768;SDS011;54569;52.018;5.584;2022-12-07T05:01:57;5.88;;;1.10;;
67768;SDS011;54569;52.018;5.584;2022-12-07T05:04:22;2.70;;;1.10;;
67768;SDS011;54569;52.018;5.584;2022-12-07T05:06:48;3.83;;;1.00;;
67768;SDS011;54569;52.018;5.584;2022-12-07T05:09:14;3.03;;;0.82;;
67768;SDS011;54569;52.018;5.584;2022-12-07T05:11:39;8.30;;;1.30;;
67768;SDS011;54569;52.018;5.584;2022-12-07T05:14:12;2.60;;;0.90;;
67768;SDS011;54569;52.018;5.584;2022-12-07T05:19:06;4.35;;;1.45;;
67768;SDS011;54569;52.018;5.584;2022-12-07T05:21:32;3.55;;;1.60;;
67768;SDS011;54569;52.018;5.584;2022-12-07T05:23:58;3.78;;;1.10;;
67768;SDS011;54569;52.018;5.584;2022-12-07T05:26:23;2.83;;;1.17;;
67768;SDS011;54569;52.018;5.584;2022-12-07T05:28:50;5.50;;;1.30;;
67768;SDS011;54569;52.018;5.584;2022-12-07T05:31:16;3.40;;;1.20;;
67768;SDS011;54569;52.018;5.584;2022-12-07T05:33:42;6.35;;;1.92;;
67768;SDS011;54569;52.018;5.584;2022-12-07T05:36:08;5.78;;;1.45;;
67768;SDS011;54569;52.018;5.584;2022-12-07T05:38:33;3.28;;;1.20;;
67768;SDS011;54569;52.018;5.584;2022-12-07T05:41:00;3.80;;;1.17;;
67768;SDS011;54569;52.018;5.584;2022-12-07T05:43:27;3.50;;;1.30;;
67768;SDS011;54569;52.018;5.584;2022-12-07T05:45:53;3.85;;;1.27;;
67768;SDS011;54569;52.018;5.584;2022-12-07T05:48:19;3.85;;;1.23;;
67768;SDS011;54569;52.018;5.584;2022-12-07T05:50:47;2.65;;;1.25;;
67768;SDS011;54569;52.018;5.584;2022-12-07T05:53:13;5.28;;;1.42;;
67768;SDS011;54569;52.018;5.584;2022-12-07T05:55:39;3.30;;;1.35;;
67768;SDS011;54569;52.018;5.584;2022-12-07T05:58:05;5.20;;;2.10;;
67768;SDS011;54569;52.018;5.584;2022-12-07T06:00:49;4.15;;;1.60;;
67768;SDS011;54569;52.018;5.584;2022-12-07T06:03:14;3.53;;;1.80;;
67768;SDS011;54569;52.018;5.584;2022-12-07T06:05:40;6.65;;;1.55;;
67768;SDS011;54569;52.018;5.584;2022-12-07T06:08:06;5.20;;;1.50;;
67768;SDS011;54569;52.018;5.584;2022-12-07T06:10:32;3.42;;;1.60;;
67768;SDS011;54569;52.018;5.584;2022-12-07T06:12:58;4.78;;;1.42;;
67768;SDS011;54569;52.018;5.584;2022-12-07T06:15:24;4.90;;;1.25;;
67768;SDS011;54569;52.018;5.584;2022-12-07T06:17:49;2.90;;;1.33;;
67768;SDS011;54569;52.018;5.584;2022-12-07T06:20:15;3.47;;;1.75;;
67768;SDS011;54569;52.018;5.584;2022-12-07T06:22:41;2.47;;;1.30;;
67768;SDS011;54569;52.018;5.584;2022-12-07T06:25:06;6.63;;;1.85;;
67768;SDS011;54569;52.018;5.584;2022-12-07T06:27:32;4.95;;;1.58;;
67768;SDS011;54569;52.018;5.584;2022-12-07T06:29:58;5.45;;;1.30;;
67768;SDS011;54569;52.018;5.584;2022-12-07T06:32:25;4.82;;;1.23;;
67768;SDS011;54569;52.018;5.584;2022-12-07T06:34:50;3.97;;;1.33;;
67768;SDS011;54569;52.018;5.584;2022-12-07T06:37:16;4.93;;;1.25;;
67768;SDS011;54569;52.018;5.584;2022-12-07T06:39:41;3.47;;;1.08;;
67768;SDS011;54569;52.018;5.584;2022-12-07T06:42:07;7.85;;;1.55;;
67768;SDS011;54569;52.018;5.584;2022-12-07T06:44:33;4.78;;;1.25;;
67768;SDS011;54569;52.018;5.584;2022-12-07T06:46:59;6.97;;;2.45;;
67768;SDS011;54569;52.018;5.584;2022-12-07T06:49:25;4.80;;;1.65;;
67768;SDS011;54569;52.018;5.584;2022-12-07T06:51:51;3.83;;;1.77;;
67768;SDS011;54569;52.018;5.584;2022-12-07T06:54:16;6.68;;;1.70;;
67768;SDS011;54569;52.018;5.584;2022-12-07T06:56:42;4.28;;;1.42;;
67768;SDS011;54569;52.018;5.584;2022-12-07T06:59:08;6.35;;;1.30;;
67768;SDS011;54569;52.018;5.584;2022-12-07T07:01:34;5.13;;;1.58;;
67768;SDS011;54569;52.018;5.584;2022-12-07T07:04:01;2.97;;;1.48;;
67768;SDS011;54569;52.018;5.584;2022-12-07T07:06:26;4.95;;;1.40;;
67768;SDS011;54569;52.018;5.584;2022-12-07T07:08:52;6.13;;;1.85;;
67768;SDS011;54569;52.018;5.584;2022-12-07T07:11:18;6.13;;;1.58;;
67768;SDS011;54569;52.018;5.584;2022-12-07T07:13:44;2.75;;;1.50;;
67768;SDS011;54569;52.018;5.584;2022-12-07T07:16:10;6.30;;;1.50;;
67768;SDS011;54569;52.018;5.584;2022-12-07T07:18:36;9.45;;;1.60;;
67768;SDS011;54569;52.018;5.584;2022-12-07T07:21:02;5.45;;;1.67;;
67768;SDS011;54569;52.018;5.584;2022-12-07T07:23:28;7.35;;;1.73;;
67768;SDS011;54569;52.018;5.584;2022-12-07T07:25:54;1.83;;;1.05;;
67768;SDS011;54569;52.018;5.584;2022-12-07T07:28:20;8.23;;;1.60;;
67768;SDS011;54569;52.018;5.584;2022-12-07T07:30:45;5.15;;;1.70;;
67768;SDS011;54569;52.018;5.584;2022-12-07T07:33:11;3.10;;;1.30;;
67768;SDS011;54569;52.018;5.584;2022-12-07T07:35:38;7.18;;;1.67;;
67768;SDS011;54569;52.018;5.584;2022-12-07T07:38:04;6.35;;;1.90;;
67768;SDS011;54569;52.018;5.584;2022-12-07T07:40:31;6.10;;;1.70;;
67768;SDS011;54569;52.018;5.584;2022-12-07T07:42:57;8.82;;;1.80;;
67768;SDS011;54569;52.018;5.584;2022-12-07T07:45:24;4.68;;;1.55;;
67768;SDS011;54569;52.018;5.584;2022-12-07T07:47:50;5.63;;;1.45;;
67768;SDS011;54569;52.018;5.584;2022-12-07T07:50:16;4.70;;;1.50;;
67768;SDS011;54569;52.018;5.584;2022-12-07T07:52:42;4.35;;;1.67;;
67768;SDS011;54569;52.018;5.584;2022-12-07T07:55:08;7.95;;;1.67;;
67768;SDS011;54569;52.018;5.584;2022-12-07T07:57:35;6.70;;;2.35;;
67768;SDS011;54569;52.018;5.584;2022-12-07T08:00:02;5.05;;;1.60;;
67768;SDS011;54569;52.018;5.584;2022-12-07T08:02:37;6.57;;;1.65;;
67768;SDS011;54569;52.018;5.584;2022-12-07T08:05:03;4.65;;;1.60;;
67768;SDS011;54569;52.018;5.584;2022-12-07T08:07:29;5.82;;;1.65;;
67768;SDS011;54569;52.018;5.584;2022-12-07T08:09:54;6.75;;;2.05;;
67768;SDS011;54569;52.018;5.584;2022-12-07T08:12:20;4.95;;;1.77;;
67768;SDS011;54569;52.018;5.584;2022-12-07T08:14:46;6.50;;;1.67;;
67768;SDS011;54569;52.018;5.584;2022-12-07T08:17:11;9.73;;;1.95;;
67768;SDS011;54569;52.018;5.584;2022-12-07T08:19:37;7.13;;;1.63;;
67768;SDS011;54569;52.018;5.584;2022-12-07T08:22:03;5.15;;;1.25;;
67768;SDS011;54569;52.018;5.584;2022-12-07T08:24:28;3.67;;;1.55;;
67768;SDS011;54569;52.018;5.584;2022-12-07T08:26:54;6.25;;;1.20;;
67768;SDS011;54569;52.018;5.584;2022-12-07T08:29:20;4.43;;;1.30;;
67768;SDS011;54569;52.018;5.584;2022-12-07T08:31:46;4.25;;;1.27;;
67768;SDS011;54569;52.018;5.584;2022-12-07T08:34:12;5.05;;;1.60;;
67768;SDS011;54569;52.018;5.584;2022-12-07T08:36:38;7.28;;;1.80;;
67768;SDS011;54569;52.018;5.584;2022-12-07T08:39:04;4.13;;;1.98;;
67768;SDS011;54569;52.018;5.584;2022-12-07T08:41:30;2.45;;;2.00;;
67768;SDS011;54569;52.018;5.584;2022-12-07T08:43:55;6.53;;;1.95;;
67768;SDS011;54569;52.018;5.584;2022-12-07T08:46:22;5.10;;;1.98;;
67768;SDS011;54569;52.018;5.584;2022-12-07T08:49:05;6.35;;;1.98;;
67768;SDS011;54569;52.018;5.584;2022-12-07T08:51:39;6.55;;;2.40;;
67768;SDS011;54569;52.018;5.584;2022-12-07T08:54:07;4.45;;;1.55;;
67768;SDS011;54569;52.018;5.584;2022-12-07T08:56:35;6.57;;;2.00;;
67768;SDS011;54569;52.018;5.584;2022-12-07T08:59:01;4.18;;;1.48;;
67768;SDS011;54569;52.018;5.584;2022-12-07T09:01:28;3.70;;;1.52;;
67768;SDS011;54569;52.018;5.584;2022-12-07T09:03:54;5.55;;;1.45;;
67768;SDS011;54569;52.018;5.584;2022-12-07T09:06:19;3.45;;;1.25;;
67768;SDS011;54569;52.018;5.584;2022-12-07T09:08:47;3.67;;;1.00;;
67768;SDS011;54569;52.018;5.584;2022-12-07T09:11:15;5.78;;;1.15;;
67768;SDS011;54569;52.018;5.584;2022-12-07T09:13:41;5.93;;;1.45;;
67768;SDS011;54569;52.018;5.584;2022-12-07T09:16:06;3.22;;;1.23;;
67768;SDS011;54569;52.018;5.584;2022-12-07T09:18:32;6.22;;;1.50;;
67768;SDS011;54569;52.018;5.584;2022-12-07T09:20:58;2.65;;;1.20;;
67768;SDS011;54569;52.018;5.584;2022-12-07T09:23:24;3.03;;;1.25;;
67768;SDS011;54569;52.018;5.584;2022-12-07T09:25:49;5.20;;;1.60;;
67768;SDS011;54569;52.018;5.584;2022-12-07T09:28:15;3.47;;;1.08;;
67768;SDS011;54569;52.018;5.584;2022-12-07T09:30:47;5.47;;;1.77;;
67768;SDS011;54569;52.018;5.584;2022-12-07T09:33:14;4.85;;;1.50;;
67768;SDS011;54569;52.018;5.584;2022-12-07T09:35:50;6.43;;;1.42;;
67768;SDS011;54569;52.018;5.584;2022-12-07T09:38:17;4.82;;;1.25;;
67768;SDS011;54569;52.018;5.584;2022-12-07T09:40:43;2.30;;;1.67;;
67768;SDS011;54569;52.018;5.584;2022-12-07T09:43:19;3.22;;;1.00;;
67768;SDS011;54569;52.018;5.584;2022-12-07T09:45:47;2.85;;;1.23;;
67768;SDS011;54569;52.018;5.584;2022-12-07T09:48:16;3.85;;;1.33;;
67768;SDS011;54569;52.018;5.584;2022-12-07T09:50:45;3.35;;;1.40;;
67768;SDS011;54569;52.018;5.584;2022-12-07T09:53:14;4.63;;;0.90;;
67768;SDS011;54569;52.018;5.584;2022-12-07T09:55:51;5.55;;;1.38;;
67768;SDS011;54569;52.018;5.584;2022-12-07T09:58:25;3.97;;;1.15;;
67768;SDS011;54569;52.018;5.584;2022-12-07T10:03:21;3.58;;;1.60;;
67768;SDS011;54569;52.018;5.584;2022-12-07T10:05:48;3.83;;;1.50;;
67768;SDS011;54569;52.018;5.584;2022-12-07T10:08:15;1.90;;;0.95;;
67768;SDS011;54569;52.018;5.584;2022-12-07T10:10:43;2.40;;;1.27;;
67768;SDS011;54569;52.018;5.584;2022-12-07T10:13:14;2.72;;;1.40;;
67768;SDS011;54569;52.018;5.584;2022-12-07T10:15:48;7.10;;;1.63;;
67768;SDS011;54569;52.018;5.584;2022-12-07T10:21:16;2.47;;;1.20;;
67768;SDS011;54569;52.018;5.584;2022-12-07T10:24:05;5.97;;;1.95;;
67768;SDS011;54569;52.018;5.584;2022-12-07T10:31:42;5.97;;;1.70;;
67768;SDS011;54569;52.018;5.584;2022-12-07T10:34:31;3.58;;;1.40;;
67768;SDS011;54569;52.018;5.584;2022-12-07T10:39:47;3.28;;;1.40;;
67768;SDS011;54569;52.018;5.584;2022-12-07T10:44:46;5.28;;;1.40;;
67768;SDS011;54569;52.018;5.584;2022-12-07T10:50:17;4.72;;;1.25;;
67768;SDS011;54569;52.018;5.584;2022-12-07T11:03:46;4.50;;;1.35;;
67768;SDS011;54569;52.018;5.584;2022-12-07T11:06:26;2.17;;;1.55;;
67768;SDS011;54569;52.018;5.584;2022-12-07T11:20:29;3.38;;;1.35;;
67768;SDS011;54569;52.018;5.584;2022-12-07T11:31:01;3.33;;;1.10;;
67768;SDS011;54569;52.018;5.584;2022-12-07T11:36:35;6.93;;;1.38;;
67768;SDS011;54569;52.018;5.584;2022-12-07T11:39:11;2.72;;;1.13;;
67768;SDS011;54569;52.018;5.584;2022-12-07T11:41:48;5.53;;;1.63;;
67768;SDS011;54569;52.018;5.584;2022-12-07T11:44:24;3.55;;;1.30;;
67768;SDS011;54569;52.018;5.584;2022-12-07T11:49:43;4.15;;;1.40;;
67768;SDS011;54569;52.018;5.584;2022-12-07T11:52:18;5.20;;;1.15;;
67768;SDS011;54569;52.018;5.584;2022-12-07T11:55:06;3.63;;;1.10;;
67768;SDS011;54569;52.018;5.584;2022-12-07T11:57:45;5.47;;;1.38;;
67768;SDS011;54569;52.018;5.584;2022-12-07T12:00:15;3.38;;;1.23;;
67768;SDS011;54569;52.018;5.584;2022-12-07T12:05:24;6.45;;;1.70;;
67768;SDS011;54569;52.018;5.584;2022-12-07T12:07:58;3.78;;;1.23;;
67768;SDS011;54569;52.018;5.584;2022-12-07T12:19:03;4.22;;;1.35;;
67768;SDS011;54569;52.018;5.584;2022-12-07T12:21:47;4.43;;;1.63;;
67768;SDS011;54569;52.018;5.584;2022-12-07T12:24:19;4.28;;;2.20;;
67768;SDS011;54569;52.018;5.584;2022-12-07T12:26:57;7.40;;;2.22;;
67768;SDS011;54569;52.018;5.584;2022-12-07T12:29:36;7.10;;;2.20;;
67768;SDS011;54569;52.018;5.584;2022-12-07T12:32:39;3.55;;;1.73;;
67768;SDS011;54569;52.018;5.584;2022-12-07T12:40:55;5.57;;;1.10;;
67768;SDS011;54569;52.018;5.584;2022-12-07T12:43:41;3.17;;;1.42;;
67768;SDS011;54569;52.018;5.584;2022-12-07T12:51:49;3.47;;;1.00;;
67768;SDS011;54569;52.018;5.584;2022-12-07T12:54:19;3.25;;;1.00;;
67768;SDS011;54569;52.018;5.584;2022-12-07T13:04:40;6.40;;;1.05;;
67768;SDS011;54569;52.018;5.584;2022-12-07T13:15:43;4.63;;;1.27;;
67768;SDS011;54569;52.018;5.584;2022-12-07T13:29:12;4.63;;;0.98;;
67768;SDS011;54569;52.018;5.584;2022-12-07T13:39:46;3.58;;;0.90;;
67768;SDS011;54569;52.018;5.584;2022-12-07T13:42:27;3.65;;;1.10;;
67768;SDS011;54569;52.018;5.584;2022-12-07T13:44:53;5.28;;;1.20;;
67768;SDS011;54569;52.018;5.584;2022-12-07T13:47:31;3.92;;;0.85;;
67768;SDS011;54569;52.018;5.584;2022-12-07T13:50:27;2.78;;;0.60;;
67768;SDS011;54569;52.018;5.584;2022-12-07T13:52:54;2.45;;;0.60;;
67768;SDS011;54569;52.018;5.584;2022-12-07T13:55:20;2.25;;;0.60;;
67768;SDS011;54569;52.018;5.584;2022-12-07T13:57:51;2.08;;;0.68;;
67768;SDS011;54569;52.018;5.584;2022-12-07T14:00:20;2.90;;;0.38;;
67768;SDS011;54569;52.018;5.584;2022-12-07T14:05:28;3.17;;;0.70;;
67768;SDS011;54569;52.018;5.584;2022-12-07T14:12:55;1.75;;;0.50;;
67768;SDS011;54569;52.018;5.584;2022-12-07T14:15:23;2.38;;;0.93;;
67768;SDS011;54569;52.018;5.584;2022-12-07T14:17:53;2.88;;;1.05;;
67768;SDS011;54569;52.018;5.584;2022-12-07T14:20:39;1.25;;;0.90;;
67768;SDS011;54569;52.018;5.584;2022-12-07T14:23:20;2.15;;;1.00;;
67768;SDS011;54569;52.018;5.584;2022-12-07T14:25:49;2.97;;;1.40;;
67768;SDS011;54569;52.018;5.584;2022-12-07T14:28:38;5.25;;;2.60;;
67768;SDS011;54569;52.018;5.584;2022-12-07T14:31:03;4.80;;;2.90;;
67768;SDS011;54569;52.018;5.584;2022-12-07T14:33:39;8.32;;;2.30;;
67768;SDS011;54569;52.018;5.584;2022-12-07T14:36:05;7.70;;;2.85;;
67768;SDS011;54569;52.018;5.584;2022-12-07T14:38:34;7.22;;;2.30;;
67768;SDS011;54569;52.018;5.584;2022-12-07T14:40:59;4.00;;;1.88;;
67768;SDS011;54569;52.018;5.584;2022-12-07T14:43:44;4.15;;;1.65;;
67768;SDS011;54569;52.018;5.584;2022-12-07T14:46:10;3.85;;;1.45;;
67768;SDS011;54569;52.018;5.584;2022-12-07T14:48:36;6.75;;;1.42;;
67768;SDS011;54569;52.018;5.584;2022-12-07T14:51:01;3.60;;;1.40;;
67768;SDS011;54569;52.018;5.584;2022-12-07T14:53:29;2.83;;;1.23;;
67768;SDS011;54569;52.018;5.584;2022-12-07T14:55:58;4.15;;;1.30;;
67768;SDS011;54569;52.018;5.584;2022-12-07T14:58:24;2.85;;;1.33;;
67768;SDS011;54569;52.018;5.584;2022-12-07T15:00:49;5.03;;;1.33;;
67768;SDS011;54569;52.018;5.584;2022-12-07T15:03:16;4.93;;;1.55;;
67768;SDS011;54569;52.018;5.584;2022-12-07T15:05:52;2.97;;;1.70;;
67768;SDS011;54569;52.018;5.584;2022-12-07T15:08:18;4.35;;;1.98;;
67768;SDS011;54569;52.018;5.584;2022-12-07T15:10:43;5.50;;;1.70;;
67768;SDS011;54569;52.018;5.584;2022-12-07T15:13:09;2.70;;;1.58;;
67768;SDS011;54569;52.018;5.584;2022-12-07T15:18:20;5.60;;;1.65;;
67768;SDS011;54569;52.018;5.584;2022-12-07T15:20:47;4.18;;;1.63;;
67768;SDS011;54569;52.018;5.584;2022-12-07T15:23:13;5.47;;;1.73;;
67768;SDS011;54569;52.018;5.584;2022-12-07T15:25:40;2.45;;;1.50;;
67768;SDS011;54569;52.018;5.584;2022-12-07T15:28:10;2.47;;;1.27;;
67768;SDS011;54569;52.018;5.584;2022-12-07T15:30:37;3.70;;;1.40;;
67768;SDS011;54569;52.018;5.584;2022-12-07T15:33:03;3.80;;;1.17;;
67768;SDS011;54569;52.018;5.584;2022-12-07T15:35:29;5.13;;;1.40;;
67768;SDS011;54569;52.018;5.584;2022-12-07T15:37:55;4.20;;;1.30;;
67768;SDS011;54569;52.018;5.584;2022-12-07T15:40:20;2.33;;;0.95;;
67768;SDS011;54569;52.018;5.584;2022-12-07T15:42:46;2.80;;;1.27;;
67768;SDS011;54569;52.018;5.584;2022-12-07T15:45:15;5.07;;;1.30;;
67768;SDS011;54569;52.018;5.584;2022-12-07T15:47:41;3.10;;;1.60;;
67768;SDS011;54569;52.018;5.584;2022-12-07T15:50:09;7.28;;;1.52;;
67768;SDS011;54569;52.018;5.584;2022-12-07T15:52:37;1.95;;;1.10;;
67768;SDS011;54569;52.018;5.584;2022-12-07T15:55:03;2.90;;;1.20;;
67768;SDS011;54569;52.018;5.584;2022-12-07T15:57:30;4.15;;;1.20;;
67768;SDS011;54569;52.018;5.584;2022-12-07T15:59:56;4.80;;;1.75;;
67768;SDS011;54569;52.018;5.584;2022-12-07T16:02:22;2.47;;;1.00;;
67768;SDS011;54569;52.018;5.584;2022-12-07T16:04:48;5.38;;;1.00;;
67768;SDS011;54569;52.018;5.584;2022-12-07T16:07:15;3.70;;;1.23;;
67768;SDS011;54569;52.018;5.584;2022-12-07T16:09:42;1.92;;;1.48;;
67768;SDS011;54569;52.018;5.584;2022-12-07T16:12:08;1.63;;;1.30;;
67768;SDS011;54569;52.018;5.584;2022-12-07T16:14:34;2.83;;;1.40;;
67768;SDS011;54569;52.018;5.584;2022-12-07T16:17:00;2.75;;;1.15;;
67768;SDS011;54569;52.018;5.584;2022-12-07T16:19:26;4.30;;;1.30;;
67768;SDS011;54569;52.018;5.584;2022-12-07T16:21:51;3.80;;;1.20;;
67768;SDS011;54569;52.018;5.584;2022-12-07T16:24:17;1.60;;;1.30;;
67768;SDS011;54569;52.018;5.584;2022-12-07T16:26:43;2.65;;;1.30;;
67768;SDS011;54569;52.018;5.584;2022-12-07T16:29:12;1.35;;;1.23;;
67768;SDS011;54569;52.018;5.584;2022-12-07T16:31:38;2.63;;;1.35;;
67768;SDS011;54569;52.018;5.584;2022-12-07T16:34:04;6.25;;;1.50;;
67768;SDS011;54569;52.018;5.584;2022-12-07T16:36:30;7.75;;;2.90;;
67768;SDS011;54569;52.018;5.584;2022-12-07T16:38:57;8.13;;;3.60;;
67768;SDS011;54569;52.018;5.584;2022-12-07T16:41:24;9.20;;;4.35;;
67768;SDS011;54569;52.018;5.584;2022-12-07T16:43:50;8.85;;;4.25;;
67768;SDS011;54569;52.018;5.584;2022-12-07T16:46:15;7.97;;;3.22;;
67768;SDS011;54569;52.018;5.584;2022-12-07T16:48:41;7.57;;;3.47;;
67768;SDS011;54569;52.018;5.584;2022-12-07T16:51:08;10.05;;;3.25;;
67768;SDS011;54569;52.018;5.584;2022-12-07T16:53:35;5.70;;;3.05;;
67768;SDS011;54569;52.018;5.584;2022-12-07T16:56:02;6.57;;;3.38;;
67768;SDS011;54569;52.018;5.584;2022-12-07T16:58:28;8.40;;;3.53;;
67768;SDS011;54569;52.018;5.584;2022-12-07T17:00:55;8.63;;;3.60;;
67768;SDS011;54569;52.018;5.584;2022-12-07T17:03:21;5.40;;;3.10;;
67768;SDS011;54569;52.018;5.584;2022-12-07T17:05:47;5.93;;;2.60;;
67768;SDS011;54569;52.018;5.584;2022-12-07T17:08:13;6.15;;;2.88;;
67768;SDS011;54569;52.018;5.584;2022-12-07T17:10:40;4.50;;;2.10;;
67768;SDS011;54569;52.018;5.584;2022-12-07T17:13:08;5.35;;;2.00;;
67768;SDS011;54569;52.018;5.584;2022-12-07T17:16:03;7.00;;;2.13;;
67768;SDS011;54569;52.018;5.584;2022-12-07T17:18:31;3.35;;;1.90;;
67768;SDS011;54569;52.018;5.584;2022-12-07T17:21:02;3.03;;;2.15;;
67768;SDS011;54569;52.018;5.584;2022-12-07T17:23:29;6.57;;;3.10;;
67768;SDS011;54569;52.018;5.584;2022-12-07T17:25:55;4.25;;;2.08;;
67768;SDS011;54569;52.018;5.584;2022-12-07T17:28:21;5.38;;;2.50;;
67768;SDS011;54569;52.018;5.584;2022-12-07T17:30:46;5.38;;;1.80;;
67768;SDS011;54569;52.018;5.584;2022-12-07T17:33:12;9.25;;;2.15;;
67768;SDS011;54569;52.018;5.584;2022-12-07T17:35:38;4.38;;;1.73;;
67768;SDS011;54569;52.018;5.584;2022-12-07T17:38:03;6.28;;;2.50;;
67768;SDS011;54569;52.018;5.584;2022-12-07T17:40:29;8.30;;;3.83;;
67768;SDS011;54569;52.018;5.584;2022-12-07T17:42:55;5.43;;;3.60;;